createdAt,value
2018-05-14T00:02:12.491Z,12.93
2018-05-14T00:04:40.910Z,12.94
2018-05-14T00:07:09.361Z,12.92
2018-05-14T00:09:37.776Z,12.86
2018-05-14T00:12:06.216Z,12.95
2018-05-14T00:14:34.674Z,12.97
2018-05-14T00:17:03.097Z,12.95
2018-05-14T00:19:31.544Z,12.99
2018-05-14T00:21:59.959Z,12.98
2018-05-14T00:24:28.404Z,12.97
2018-05-14T00:26:56.814Z,12.99
2018-05-14T00:29:26.027Z,13.03
2018-05-14T00:31:54.440Z,13.00
2018-05-14T00:34:22.889Z,13.02
2018-05-14T00:36:51.297Z,12.98
2018-05-14T00:39:19.758Z,12.97
2018-05-14T00:41:48.188Z,13.04
2018-05-14T00:44:17.397Z,12.98
2018-05-14T00:46:45.822Z,12.97
2018-05-14T00:49:15.012Z,12.98
2018-05-14T00:51:44.272Z,12.96
2018-05-14T00:54:12.683Z,12.94
2018-05-14T00:56:41.128Z,13.02
2018-05-14T00:59:09.552Z,13.03
2018-05-14T01:01:38.028Z,12.98
2018-05-14T01:04:06.444Z,12.93
2018-05-14T01:06:35.686Z,12.92
2018-05-14T01:09:04.098Z,12.91
2018-05-14T01:11:32.611Z,12.91
2018-05-14T01:14:01.793Z,12.94
2018-05-14T01:16:30.255Z,12.96
2018-05-14T01:18:58.688Z,12.98
2018-05-14T01:21:27.908Z,12.96
2018-05-14T01:23:56.321Z,12.94
2018-05-14T01:26:24.771Z,12.94
2018-05-14T01:28:53.187Z,12.86
2018-05-14T01:31:21.598Z,12.87
2018-05-14T01:33:50.047Z,12.86
2018-05-14T01:36:18.473Z,12.88
2018-05-14T01:38:46.921Z,12.94
2018-05-14T01:41:16.540Z,12.98
2018-05-14T01:43:45.145Z,12.88
2018-05-14T01:46:13.572Z,12.90
2018-05-14T01:48:42.016Z,12.92
2018-05-14T01:51:10.431Z,12.93
2018-05-14T01:53:39.654Z,12.94
2018-05-14T01:56:08.114Z,12.93
2018-05-14T01:58:37.347Z,12.88
2018-05-14T02:01:05.760Z,12.94
2018-05-14T02:03:35.678Z,12.98
2018-05-14T02:06:04.114Z,12.89
2018-05-14T02:08:33.303Z,12.86
2018-05-14T02:11:02.522Z,12.81
2018-05-14T02:13:30.987Z,12.79
2018-05-14T02:16:00.210Z,12.84
2018-05-14T02:18:28.635Z,12.86
2018-05-14T02:20:57.094Z,12.89
2018-05-14T02:23:25.509Z,12.95
2018-05-14T02:25:53.961Z,13.05
2018-05-14T02:28:22.385Z,13.09
2018-05-14T02:30:50.898Z,13.11
2018-05-14T02:33:19.684Z,13.06
2018-05-14T02:35:48.110Z,12.95
2018-05-14T02:38:16.634Z,12.84
2018-05-14T02:40:47.169Z,12.76
2018-05-14T02:43:15.610Z,12.81
2018-05-14T02:45:44.016Z,12.77
2018-05-14T02:48:12.469Z,12.75
2018-05-14T02:50:41.951Z,12.62
2018-05-14T02:53:11.280Z,12.75
2018-05-14T02:55:40.940Z,12.73
2018-05-14T02:58:11.338Z,12.69
2018-05-14T03:00:39.852Z,12.57
2018-05-14T03:03:08.363Z,12.75
2018-05-14T03:05:37.004Z,12.81
2018-05-14T03:08:05.748Z,12.79
2018-05-14T03:10:34.262Z,12.67
2018-05-14T03:13:03.722Z,12.56
2018-05-14T03:15:32.193Z,12.53
2018-05-14T03:18:00.628Z,12.52
2018-05-14T03:20:29.821Z,12.52
2018-05-14T03:22:58.321Z,12.62
2018-05-14T03:25:26.781Z,12.66
2018-05-14T03:27:55.235Z,12.69
2018-05-14T03:30:23.650Z,12.69
2018-05-14T03:32:52.104Z,12.59
2018-05-14T03:35:20.548Z,12.54
2018-05-14T03:37:49.826Z,12.48
2018-05-14T03:40:18.235Z,12.50
2018-05-14T03:42:47.459Z,12.53
2018-05-14T03:45:15.870Z,12.55
2018-05-14T03:47:44.282Z,12.58
2018-05-14T03:50:12.719Z,12.62
2018-05-14T03:52:41.142Z,12.69
2018-05-14T03:55:09.590Z,12.75
2018-05-14T03:57:37.995Z,12.73
2018-05-14T04:00:24.033Z,12.74
2018-05-14T04:03:10.910Z,12.75
2018-05-14T04:05:57.055Z,12.63
2018-05-14T04:08:25.541Z,12.81
2018-05-14T04:10:54.705Z,12.94
2018-05-14T04:13:23.872Z,12.87
2018-05-14T04:15:52.315Z,12.93
2018-05-14T04:18:21.499Z,12.72
2018-05-14T04:20:49.943Z,12.72
2018-05-14T04:23:18.364Z,12.86
2018-05-14T04:25:47.567Z,12.76
2018-05-14T04:28:16.744Z,12.59
2018-05-14T04:30:45.967Z,12.74
2018-05-14T04:33:14.386Z,12.93
2018-05-14T04:35:42.835Z,12.97
2018-05-14T04:38:12.011Z,13.02
2018-05-14T04:40:40.470Z,13.07
2018-05-14T04:43:08.903Z,12.88
2018-05-14T04:45:38.096Z,12.82
2018-05-14T04:48:07.316Z,12.74
2018-05-14T04:50:35.741Z,12.55
2018-05-14T04:53:04.176Z,12.57
2018-05-14T04:55:32.591Z,12.57
2018-05-14T04:58:01.805Z,12.68
2018-05-14T05:00:30.236Z,12.71
2018-05-14T05:02:59.450Z,12.55
2018-05-14T05:05:28.640Z,12.46
2018-05-14T05:07:57.968Z,12.49
2018-05-14T05:10:26.415Z,12.52
2018-05-14T05:12:54.861Z,12.56
2018-05-14T05:15:23.270Z,12.45
2018-05-14T05:17:51.722Z,12.48
2018-05-14T05:20:20.145Z,12.49
2018-05-14T05:22:48.673Z,12.50
2018-05-14T05:25:17.094Z,12.48
2018-05-14T05:27:45.500Z,12.49
2018-05-14T05:30:13.948Z,12.53
2018-05-14T05:32:42.356Z,12.54
2018-05-14T05:35:10.818Z,12.57
2018-05-14T05:37:39.362Z,12.59
2018-05-14T05:40:08.512Z,12.63
2018-05-14T05:42:36.934Z,12.58
2018-05-14T05:45:05.416Z,12.60
2018-05-14T05:47:34.020Z,12.30
2018-05-14T05:50:02.495Z,12.29
2018-05-14T05:52:31.848Z,12.29
2018-05-14T05:55:00.249Z,12.31
2018-05-14T05:57:28.700Z,12.39
2018-05-14T05:59:57.156Z,12.47
2018-05-14T06:02:26.409Z,12.49
2018-05-14T06:04:54.829Z,12.52
2018-05-14T06:07:23.346Z,12.54
2018-05-14T06:09:52.528Z,12.41
2018-05-14T06:12:21.789Z,12.52
2018-05-14T06:14:50.222Z,12.47
2018-05-14T06:17:19.453Z,12.36
2018-05-14T06:19:47.875Z,12.29
2018-05-14T06:22:16.346Z,12.22
2018-05-14T06:24:44.769Z,12.30
2018-05-14T06:27:13.224Z,12.42
2018-05-14T06:29:41.638Z,12.53
2018-05-14T06:32:10.082Z,12.62
2018-05-14T06:34:38.516Z,12.71
2018-05-14T06:37:07.731Z,12.86
2018-05-14T06:39:36.906Z,12.80
2018-05-14T06:42:07.479Z,12.86
2018-05-14T06:44:35.893Z,12.87
2018-05-14T06:47:04.343Z,12.98
2018-05-14T06:49:32.777Z,12.95
2018-05-14T06:52:01.203Z,12.97
2018-05-14T06:54:30.413Z,12.81
2018-05-14T06:56:58.822Z,12.95
2018-05-14T06:59:28.081Z,12.86
2018-05-14T07:01:57.264Z,12.84
2018-05-14T07:04:25.708Z,12.80
2018-05-14T07:06:54.128Z,12.81
2018-05-14T07:09:22.570Z,12.84
2018-05-14T07:11:50.996Z,12.88
2018-05-14T07:14:19.441Z,12.87
2018-05-14T07:16:47.937Z,12.87
2018-05-14T07:19:16.390Z,12.72
2018-05-14T07:21:44.811Z,12.87
2018-05-14T07:24:13.259Z,12.98
2018-05-14T07:26:41.686Z,13.12
2018-05-14T07:29:10.315Z,13.24
2018-05-14T07:31:38.571Z,13.30
2018-05-14T07:34:06.983Z,13.38
2018-05-14T07:36:36.194Z,13.51
2018-05-14T07:39:06.275Z,13.55
2018-05-14T07:41:34.721Z,13.54
2018-05-14T07:44:03.125Z,13.56
2018-05-14T07:46:31.566Z,13.63
2018-05-14T07:49:00.755Z,13.73
2018-05-14T07:51:29.991Z,13.71
2018-05-14T07:53:58.408Z,13.68
2018-05-14T07:56:26.866Z,13.93
2018-05-14T07:58:55.267Z,13.95
2018-05-14T08:01:23.707Z,14.10
2018-05-14T08:03:52.184Z,14.12
2018-05-14T08:06:20.612Z,14.21
2018-05-14T08:08:49.028Z,14.14
2018-05-14T08:11:17.469Z,14.25
2018-05-14T08:13:45.901Z,14.25
2018-05-14T08:16:14.345Z,14.21
2018-05-14T08:18:42.748Z,14.18
2018-05-14T08:21:11.169Z,14.15
2018-05-14T08:23:40.376Z,14.04
2018-05-14T08:26:09.554Z,14.20
2018-05-14T08:28:37.990Z,13.92
2018-05-14T08:31:06.399Z,13.98
2018-05-14T08:33:34.850Z,13.87
2018-05-14T08:36:03.264Z,13.73
2018-05-14T08:38:31.689Z,13.76
2018-05-14T08:41:00.937Z,13.82
2018-05-14T08:43:29.378Z,13.78
2018-05-14T08:45:58.550Z,13.77
2018-05-14T08:48:26.997Z,13.79
2018-05-14T08:50:55.407Z,13.82
2018-05-14T08:53:23.845Z,13.87
2018-05-14T08:55:53.035Z,13.83
2018-05-14T08:58:22.250Z,13.85
2018-05-14T09:00:51.432Z,13.78
2018-05-14T09:03:20.611Z,13.69
2018-05-14T09:05:49.068Z,13.74
2018-05-14T09:08:17.540Z,13.77
2018-05-14T09:10:45.987Z,13.67
2018-05-14T09:13:14.402Z,13.67
2018-05-14T09:15:42.849Z,13.59
2018-05-14T09:18:11.260Z,13.57
2018-05-14T09:20:40.470Z,13.49
2018-05-14T09:23:09.640Z,13.67
2018-05-14T09:25:38.079Z,13.65
2018-05-14T09:28:06.499Z,13.73
2018-05-14T09:30:34.940Z,13.80
2018-05-14T09:33:03.347Z,13.84
2018-05-14T09:35:31.813Z,13.81
2018-05-14T09:38:00.218Z,13.83
2018-05-14T09:40:28.647Z,13.78
2018-05-14T09:42:57.838Z,13.87
2018-05-14T09:45:27.066Z,13.87
2018-05-14T09:47:55.476Z,13.86
2018-05-14T09:50:23.941Z,13.89
2018-05-14T09:52:53.115Z,14.00
2018-05-14T09:55:22.299Z,13.99
2018-05-14T09:57:50.743Z,13.97
2018-05-14T10:00:19.150Z,14.01
2018-05-14T10:02:47.599Z,14.05
2018-05-14T10:05:16.021Z,14.00
2018-05-14T10:07:44.533Z,14.02
2018-05-14T10:10:13.721Z,14.05
2018-05-14T10:12:42.176Z,14.13
2018-05-14T10:15:10.572Z,14.21
2018-05-14T10:17:39.017Z,14.16
2018-05-14T10:20:07.445Z,14.19
2018-05-14T10:22:35.896Z,14.16
2018-05-14T10:25:04.313Z,14.12
2018-05-14T10:27:32.886Z,14.18
2018-05-14T10:30:01.301Z,14.14
2018-05-14T10:32:29.766Z,14.14
2018-05-14T10:34:58.230Z,14.08
2018-05-14T10:37:26.710Z,14.06
2018-05-14T10:39:55.152Z,14.04
2018-05-14T10:42:23.656Z,14.05
2018-05-14T10:44:52.864Z,14.04
2018-05-14T10:47:21.406Z,14.07
2018-05-14T10:49:49.862Z,14.11
2018-05-14T10:52:18.286Z,14.12
2018-05-14T10:54:46.731Z,14.05
2018-05-14T10:57:15.146Z,14.03
2018-05-14T10:59:43.583Z,14.11
2018-05-14T11:02:11.997Z,14.13
2018-05-14T11:04:40.462Z,14.19
2018-05-14T11:07:08.884Z,14.11
2018-05-14T11:09:37.344Z,14.17
2018-05-14T11:12:05.777Z,14.14
2018-05-14T11:14:34.952Z,14.22
2018-05-14T11:17:03.408Z,14.25
2018-05-14T11:19:32.582Z,14.27
2018-05-14T11:22:01.797Z,14.21
2018-05-14T11:24:30.208Z,14.22
2018-05-14T11:26:58.654Z,14.20
2018-05-14T11:29:27.819Z,14.25
2018-05-14T11:31:56.341Z,14.28
2018-05-14T11:34:25.516Z,14.25
2018-05-14T11:36:53.952Z,14.25
2018-05-14T11:39:22.359Z,14.32
2018-05-14T11:41:50.821Z,14.44
2018-05-14T11:44:19.240Z,14.42
2018-05-14T11:46:49.029Z,14.35
2018-05-14T11:49:17.441Z,14.43
2018-05-14T11:51:45.857Z,14.52
2018-05-14T11:54:15.067Z,14.53
2018-05-14T11:56:43.687Z,14.57
2018-05-14T11:59:12.575Z,14.62
2018-05-14T12:01:40.991Z,14.52
2018-05-14T12:04:09.449Z,14.45
2018-05-14T12:06:37.874Z,14.54
2018-05-14T12:09:06.309Z,14.53
2018-05-14T12:11:34.731Z,14.47
2018-05-14T12:14:03.173Z,14.53
2018-05-14T12:16:31.679Z,14.53
2018-05-14T12:19:00.129Z,14.41
2018-05-14T12:21:28.559Z,14.46
2018-05-14T12:23:57.031Z,14.34
2018-05-14T12:26:25.460Z,14.49
2018-05-14T12:28:54.010Z,14.52
2018-05-14T12:31:22.431Z,14.55
2018-05-14T12:33:51.654Z,14.55
2018-05-14T12:36:20.181Z,14.47
2018-05-14T12:38:48.589Z,14.51
2018-05-14T12:41:17.105Z,14.46
2018-05-14T12:43:46.279Z,14.54
2018-05-14T12:46:14.818Z,14.48
2018-05-14T12:48:43.963Z,14.45
2018-05-14T12:51:12.404Z,14.43
2018-05-14T12:53:40.829Z,14.38
2018-05-14T12:56:09.287Z,14.39
2018-05-14T12:58:37.700Z,14.32
2018-05-14T13:01:06.155Z,14.23
2018-05-14T13:03:34.574Z,14.26
2018-05-14T13:06:03.027Z,14.29
2018-05-14T13:08:31.440Z,14.39
2018-05-14T13:10:59.912Z,14.38
2018-05-14T13:13:28.362Z,14.43
2018-05-14T13:15:57.112Z,14.54
2018-05-14T13:18:26.374Z,14.50
2018-05-14T13:20:54.770Z,14.48
2018-05-14T13:23:23.221Z,14.53
2018-05-14T13:25:51.644Z,14.53
2018-05-14T13:28:20.091Z,14.58
2018-05-14T13:30:48.536Z,14.64
2018-05-14T13:33:17.747Z,14.63
2018-05-14T13:35:46.187Z,14.62
2018-05-14T13:38:14.650Z,14.64
2018-05-14T13:40:43.091Z,14.63
2018-05-14T13:43:12.326Z,14.66
2018-05-14T13:45:40.727Z,14.69
2018-05-14T13:48:09.184Z,14.81
2018-05-14T13:50:37.611Z,14.91
2018-05-14T13:53:06.064Z,14.96
2018-05-14T13:55:34.503Z,14.92
2018-05-14T13:58:02.922Z,15.00
2018-05-14T14:00:32.142Z,15.16
2018-05-14T14:03:00.578Z,15.20
2018-05-14T14:05:29.042Z,15.19
2018-05-14T14:07:57.484Z,15.32
2018-05-14T14:10:25.928Z,15.37
2018-05-14T14:12:54.338Z,15.23
2018-05-14T14:15:23.559Z,15.27
2018-05-14T14:17:51.976Z,15.27
2018-05-14T14:20:20.430Z,15.32
2018-05-14T14:22:48.843Z,15.38
2018-05-14T14:25:17.312Z,15.47
2018-05-14T14:27:45.735Z,15.57
2018-05-14T14:30:14.145Z,15.49
2018-05-14T14:32:43.354Z,15.53
2018-05-14T14:35:12.548Z,15.58
2018-05-14T14:37:41.006Z,15.57
2018-05-14T14:40:09.436Z,15.61
2018-05-14T14:42:37.890Z,15.61
2018-05-14T14:45:06.298Z,15.62
2018-05-14T14:47:34.876Z,15.55
2018-05-14T14:50:04.166Z,15.46
2018-05-14T14:52:33.811Z,15.46
2018-05-14T14:55:02.222Z,15.47
2018-05-14T14:57:31.795Z,15.53
2018-05-14T15:00:00.235Z,15.58
2018-05-14T15:02:28.735Z,15.57
2018-05-14T15:04:57.948Z,15.56
2018-05-14T15:07:27.215Z,15.57
2018-05-14T15:09:55.631Z,15.52
2018-05-14T15:12:25.024Z,15.58
2018-05-14T15:14:53.440Z,15.53
2018-05-14T15:17:22.739Z,15.52
2018-05-14T15:19:51.968Z,15.43
2018-05-14T15:22:20.484Z,15.36
2018-05-14T15:24:48.937Z,15.32
2018-05-14T15:27:17.421Z,15.20
2018-05-14T15:29:45.936Z,15.29
2018-05-14T15:32:14.317Z,15.30
2018-05-14T15:34:42.754Z,15.17
2018-05-14T15:37:11.939Z,15.12
2018-05-14T15:39:41.153Z,15.02
2018-05-14T15:42:10.337Z,15.00
2018-05-14T15:44:38.788Z,14.90
2018-05-14T15:47:07.223Z,14.95
2018-05-14T15:49:36.449Z,14.88
2018-05-14T15:52:04.890Z,14.78
2018-05-14T15:54:33.354Z,14.77
2018-05-14T15:57:01.830Z,14.73
2018-05-14T15:59:30.282Z,14.74
2018-05-14T16:01:58.704Z,14.62
2018-05-14T16:04:27.696Z,14.65
2018-05-14T16:06:56.159Z,14.64
2018-05-14T16:09:24.595Z,14.58
2018-05-14T16:11:53.080Z,14.51
2018-05-14T16:14:21.505Z,14.49
2018-05-14T16:16:49.973Z,14.48
2018-05-14T16:19:19.166Z,14.45
2018-05-14T16:21:48.399Z,14.48
2018-05-14T16:24:16.903Z,14.54
2018-05-14T16:26:45.352Z,14.59
2018-05-14T16:29:13.778Z,14.63
2018-05-14T16:31:42.250Z,14.66
2018-05-14T16:34:10.670Z,14.64
2018-05-14T16:36:39.135Z,14.68
2018-05-14T16:39:07.572Z,14.68
2018-05-14T16:41:36.039Z,14.62
2018-05-14T16:44:05.312Z,14.68
2018-05-14T16:46:34.483Z,14.70
2018-05-14T16:49:02.994Z,14.86
2018-05-14T16:51:31.437Z,14.81
2018-05-14T16:53:59.895Z,14.76
2018-05-14T16:56:28.336Z,14.77
2018-05-14T16:58:56.809Z,14.95
2018-05-14T17:01:25.248Z,14.92
2018-05-14T17:03:53.824Z,14.90
2018-05-14T17:06:22.260Z,14.95
2018-05-14T17:08:50.738Z,14.84
2018-05-14T17:11:19.161Z,14.82
2018-05-14T17:13:47.637Z,14.72
2018-05-14T17:16:16.127Z,14.65
2018-05-14T17:18:45.032Z,14.66
2018-05-14T17:21:13.487Z,14.69
2018-05-14T17:23:41.965Z,14.72
2018-05-14T17:26:10.474Z,14.56
2018-05-14T17:28:39.201Z,14.52
2018-05-14T17:31:07.715Z,14.57
2018-05-14T17:33:36.221Z,14.54
2018-05-14T17:36:04.649Z,14.52
2018-05-14T17:38:35.391Z,14.50
2018-05-14T17:41:04.647Z,14.48
2018-05-14T17:43:33.899Z,14.44
2018-05-14T17:46:02.353Z,14.44
2018-05-14T17:48:30.773Z,14.47
2018-05-14T17:50:59.644Z,14.44
2018-05-14T17:53:28.086Z,14.47
2018-05-14T17:55:56.830Z,14.48
2018-05-14T17:58:25.341Z,14.41
2018-05-14T18:00:54.563Z,14.50
2018-05-14T18:03:29.656Z,14.40
2018-05-14T18:05:58.133Z,14.30
2018-05-14T18:08:26.621Z,14.34
2018-05-14T18:10:55.135Z,14.35
2018-05-14T18:13:23.548Z,14.38
2018-05-14T18:15:52.007Z,14.31
2018-05-14T18:18:20.513Z,14.33
2018-05-14T18:20:48.983Z,14.26
2018-05-14T18:23:24.879Z,14.32
2018-05-14T18:25:58.795Z,14.41
2018-05-14T18:28:32.863Z,14.34
2018-05-14T18:31:03.083Z,14.34
2018-05-14T18:33:32.289Z,14.32
2018-05-14T18:36:01.476Z,14.29
2018-05-14T18:38:29.924Z,14.28
2018-05-14T18:40:58.610Z,14.18
2018-05-14T18:43:27.064Z,14.21
2018-05-14T18:45:56.267Z,14.22
2018-05-14T18:48:24.964Z,14.27
2018-05-14T18:50:53.399Z,14.35
2018-05-14T18:53:21.857Z,14.26
2018-05-14T18:55:50.300Z,14.23
2018-05-14T18:58:19.517Z,14.19
2018-05-14T19:00:47.978Z,14.28
2018-05-14T19:03:17.214Z,14.23
2018-05-14T19:05:45.678Z,14.27
2018-05-14T19:08:14.207Z,14.32
2018-05-14T19:10:47.999Z,14.24
2018-05-14T19:13:16.480Z,14.22
2018-05-14T19:15:50.468Z,14.30
2018-05-14T19:18:18.917Z,14.31
2018-05-14T19:20:47.358Z,14.27
2018-05-14T19:23:21.369Z,14.25
2018-05-14T19:25:49.886Z,14.23
2018-05-14T19:28:23.842Z,14.25
2018-05-14T19:30:53.123Z,14.26
2018-05-14T19:33:27.894Z,14.34
2018-05-14T19:35:57.992Z,14.34
2018-05-14T19:38:27.976Z,14.28
2018-05-14T19:40:56.418Z,14.32
2018-05-14T19:43:24.943Z,14.34
2018-05-14T19:45:54.702Z,14.39
2018-05-14T19:48:23.891Z,14.42
2018-05-14T19:50:53.116Z,14.43
2018-05-14T19:53:21.560Z,14.41
2018-05-14T19:55:50.180Z,14.38
2018-05-14T19:58:19.358Z,14.37
2018-05-14T20:00:47.917Z,14.39
2018-05-14T20:03:16.447Z,14.38
2018-05-14T20:05:46.234Z,14.42
2018-05-14T20:08:14.841Z,14.47
2018-05-14T20:10:43.298Z,14.48
2018-05-14T20:13:11.799Z,14.39
2018-05-14T20:15:42.964Z,14.42
2018-05-14T20:18:12.188Z,14.44
2018-05-14T20:20:40.676Z,14.42
2018-05-14T20:23:09.148Z,14.39
2018-05-14T20:25:38.344Z,14.44
2018-05-14T20:28:07.636Z,14.44
2018-05-14T20:30:36.050Z,14.43
2018-05-14T20:33:04.511Z,14.45
2018-05-14T20:35:33.696Z,14.48
2018-05-14T20:38:02.155Z,14.50
2018-05-14T20:40:30.622Z,14.57
2018-05-14T20:42:59.186Z,14.58
2018-05-14T20:45:27.577Z,14.64
2018-05-14T20:47:56.057Z,14.57
2018-05-14T20:50:24.610Z,14.51
2018-05-14T20:52:53.135Z,14.47
2018-05-14T20:55:21.587Z,14.57
2018-05-14T20:57:50.806Z,14.48
2018-05-14T21:00:20.023Z,14.52
2018-05-14T21:02:48.483Z,14.45
2018-05-14T21:05:17.703Z,14.49
2018-05-14T21:07:46.169Z,14.46
2018-05-14T21:10:15.391Z,14.46
2018-05-14T21:12:43.822Z,14.43
2018-05-14T21:15:12.286Z,14.44
2018-05-14T21:17:40.711Z,14.39
2018-05-14T21:20:09.180Z,14.37
2018-05-14T21:22:37.606Z,14.40
2018-05-14T21:25:06.832Z,14.31
2018-05-14T21:27:35.319Z,14.33
2018-05-14T21:30:03.826Z,14.35
2018-05-14T21:32:33.829Z,14.36
2018-05-14T21:35:02.883Z,14.50
2018-05-14T21:37:32.750Z,14.30
2018-05-14T21:40:02.378Z,14.33
2018-05-14T21:42:31.005Z,14.25
2018-05-14T21:45:02.088Z,14.23
2018-05-14T21:47:31.435Z,14.31
2018-05-14T21:49:59.947Z,14.36
2018-05-14T21:52:29.425Z,14.38
2018-05-14T21:54:57.843Z,14.35
2018-05-14T21:57:27.146Z,14.29
2018-05-14T21:59:56.323Z,14.22
2018-05-14T22:02:24.772Z,14.18
2018-05-14T22:04:53.195Z,14.17
2018-05-14T22:07:21.681Z,14.17
2018-05-14T22:09:50.095Z,14.17
2018-05-14T22:12:18.557Z,14.16
2018-05-14T22:14:47.739Z,14.15
2018-05-14T22:17:16.182Z,14.14
2018-05-14T22:19:44.644Z,14.14
2018-05-14T22:22:13.834Z,14.18
2018-05-14T22:24:43.063Z,14.17
2018-05-14T22:27:11.476Z,14.07
2018-05-14T22:29:39.932Z,14.05
2018-05-14T22:32:09.230Z,13.82
2018-05-14T22:34:37.695Z,13.73
2018-05-14T22:37:06.899Z,13.72
2018-05-14T22:39:36.133Z,13.79
2018-05-14T22:42:04.571Z,13.70
2018-05-14T22:44:33.032Z,13.49
2018-05-14T22:47:01.528Z,13.52
2018-05-14T22:49:29.996Z,13.53
2018-05-14T22:51:58.431Z,13.50
2018-05-14T22:54:38.140Z,13.46
2018-05-14T22:57:06.574Z,13.40
2018-05-14T22:59:35.024Z,13.26
2018-05-14T23:02:03.464Z,13.19
2018-05-14T23:04:31.922Z,13.12
2018-05-14T23:07:00.966Z,13.07
2018-05-14T23:09:29.396Z,13.08
2018-05-14T23:11:58.610Z,13.05
2018-05-14T23:14:27.033Z,12.94
2018-05-14T23:16:55.500Z,12.96
2018-05-14T23:19:23.920Z,12.90
2018-05-14T23:21:52.386Z,12.81
2018-05-14T23:24:20.803Z,12.64
2018-05-14T23:26:49.271Z,12.73
2018-05-14T23:29:18.655Z,12.61
2018-05-14T23:31:47.141Z,12.65
2018-05-14T23:34:15.575Z,12.57
2018-05-14T23:36:44.796Z,12.57
2018-05-14T23:39:13.202Z,12.52
2018-05-14T23:41:41.663Z,12.51
2018-05-14T23:44:10.104Z,12.43
2018-05-14T23:46:38.569Z,12.49
2018-05-14T23:49:06.994Z,12.43
2018-05-14T23:51:36.209Z,12.33
2018-05-14T23:54:05.410Z,12.30
2018-05-14T23:56:34.639Z,12.24
2018-05-14T23:59:03.827Z,12.19
